createdAt,value
2019-06-08T00:03:02.773Z,25.31
2019-06-08T00:06:08.566Z,25.33
2019-06-08T00:09:16.698Z,25.15
2019-06-08T00:12:23.240Z,25.19
2019-06-08T00:15:29.064Z,25.11
2019-06-08T00:18:34.805Z,25.01
2019-06-08T00:21:40.521Z,25.06
2019-06-08T00:24:46.269Z,25.06
2019-06-08T00:27:51.943Z,24.95
2019-06-08T00:30:57.618Z,24.84
2019-06-08T00:34:03.304Z,24.99
2019-06-08T00:37:09.033Z,25.01
2019-06-08T00:40:15.144Z,24.98
2019-06-08T00:43:21.398Z,25.08
2019-06-08T00:46:27.328Z,25.09
2019-06-08T00:49:33.045Z,25.02
2019-06-08T00:52:38.750Z,24.82
2019-06-08T00:55:44.559Z,24.94
2019-06-08T00:58:50.365Z,24.75
2019-06-08T01:01:56.166Z,24.80
2019-06-08T01:05:01.958Z,24.76
2019-06-08T01:08:07.964Z,24.72
2019-06-08T01:11:13.781Z,24.74
2019-06-08T01:14:20.791Z,24.62
2019-06-08T01:17:27.528Z,24.69
2019-06-08T01:20:33.409Z,24.70
2019-06-08T01:23:39.092Z,24.65
2019-06-08T01:26:44.900Z,24.70
2019-06-08T01:29:50.667Z,24.77
2019-06-08T01:32:56.582Z,24.72
2019-06-08T01:36:02.310Z,24.62
2019-06-08T01:39:08.626Z,24.78
2019-06-08T01:42:14.649Z,24.74
2019-06-08T01:45:30.472Z,24.74
2019-06-08T01:48:36.232Z,24.71
2019-06-08T01:51:42.008Z,24.68
2019-06-08T01:54:47.864Z,24.65
2019-06-08T01:57:53.627Z,24.73
2019-06-08T02:00:59.383Z,24.63
2019-06-08T02:04:05.445Z,24.67
2019-06-08T02:07:11.436Z,24.55
2019-06-08T02:10:17.399Z,24.28
2019-06-08T02:13:23.135Z,24.28
2019-06-08T02:16:29.692Z,24.19
2019-06-08T02:19:36.461Z,24.02
2019-06-08T02:22:42.185Z,24.09
2019-06-08T02:25:48.143Z,23.93
2019-06-08T02:28:56.977Z,23.93
2019-06-08T02:32:07.115Z,23.93
2019-06-08T02:35:18.446Z,23.91
2019-06-08T02:38:31.937Z,24.01
2019-06-08T02:41:39.819Z,23.97
2019-06-08T02:44:45.523Z,23.95
2019-06-08T02:47:51.334Z,23.94
2019-06-08T02:50:57.853Z,23.79
2019-06-08T02:54:04.750Z,23.66
2019-06-08T02:57:12.003Z,23.79
2019-06-08T03:00:18.840Z,23.82
2019-06-08T03:03:26.722Z,23.85
2019-06-08T03:06:34.704Z,23.67
2019-06-08T03:09:42.186Z,23.64
2019-06-08T03:12:50.331Z,23.73
2019-06-08T03:15:56.006Z,23.76
2019-06-08T03:19:20.150Z,24.00
2019-06-08T03:22:10.881Z,24.13
2019-06-08T03:25:16.446Z,24.20
2019-06-08T03:28:22.155Z,24.23
2019-06-08T03:31:27.838Z,24.42
2019-06-08T03:34:35.665Z,24.60
2019-06-08T03:37:42.844Z,24.64
2019-06-08T03:40:49.339Z,24.71
2019-06-08T03:43:55.031Z,24.98
2019-06-08T03:47:00.698Z,25.03
2019-06-08T03:50:08.794Z,25.18
2019-06-08T03:53:14.440Z,25.41
2019-06-08T03:56:20.165Z,25.36
2019-06-08T03:59:25.861Z,25.53
2019-06-08T04:02:31.532Z,25.33
2019-06-08T04:05:37.940Z,25.47
2019-06-08T04:08:47.048Z,25.73
2019-06-08T04:11:51.991Z,25.98
2019-06-08T04:15:00.265Z,26.06
2019-06-08T04:18:06.157Z,26.24
2019-06-08T04:21:11.993Z,26.50
2019-06-08T04:24:17.695Z,26.25
2019-06-08T04:27:23.391Z,26.36
2019-06-08T04:30:29.166Z,26.53
2019-06-08T04:33:34.895Z,25.99
2019-06-08T04:36:41.281Z,26.03
2019-06-08T04:39:47.563Z,25.82
2019-06-08T04:42:53.342Z,26.22
2019-06-08T04:45:59.003Z,26.12
2019-06-08T04:49:04.823Z,26.65
2019-06-08T04:52:10.559Z,26.33
2019-06-08T04:55:16.463Z,26.37
2019-06-08T04:58:23.559Z,26.62
2019-06-08T05:01:29.315Z,27.03
2019-06-08T05:04:34.995Z,27.36
2019-06-08T05:07:41.482Z,27.59
2019-06-08T05:10:49.706Z,27.36
2019-06-08T05:13:55.536Z,27.76
2019-06-08T05:17:01.263Z,27.73
2019-06-08T05:20:07.567Z,28.26
2019-06-08T05:23:13.278Z,28.32
2019-06-08T05:26:18.932Z,28.55
2019-06-08T05:29:24.655Z,28.72
2019-06-08T05:32:30.372Z,28.69
2019-06-08T05:35:36.153Z,28.61
2019-06-08T05:38:43.458Z,28.82
2019-06-08T05:41:49.794Z,28.69
2019-06-08T05:44:55.680Z,28.90
2019-06-08T05:48:01.318Z,28.91
2019-06-08T05:51:07.024Z,29.19
2019-06-08T05:54:12.720Z,29.56
2019-06-08T05:57:18.424Z,29.67
2019-06-08T06:00:24.360Z,29.87
2019-06-08T06:03:30.035Z,30.12
2019-06-08T06:06:35.744Z,29.91
2019-06-08T06:09:42.935Z,30.03
2019-06-08T06:12:49.081Z,30.30
2019-06-08T06:15:54.802Z,29.98
2019-06-08T06:19:00.532Z,30.08
2019-06-08T06:22:06.245Z,30.08
2019-06-08T06:25:12.093Z,30.52
2019-06-08T06:28:17.803Z,30.41
2019-06-08T06:31:23.456Z,30.46
2019-06-08T06:34:29.143Z,30.66
2019-06-08T06:37:34.952Z,30.96
2019-06-08T06:40:41.976Z,31.27
2019-06-08T06:43:48.163Z,31.34
2019-06-08T06:46:53.816Z,31.57
2019-06-08T06:49:59.501Z,31.57
2019-06-08T06:53:05.190Z,31.82
2019-06-08T06:56:10.870Z,31.85
2019-06-08T06:59:16.585Z,31.76
2019-06-08T07:02:22.943Z,31.72
2019-06-08T07:05:28.647Z,32.20
2019-06-08T07:08:34.323Z,31.90
2019-06-08T07:11:40.011Z,32.30
2019-06-08T07:14:46.931Z,31.90
2019-06-08T07:17:53.570Z,32.41
2019-06-08T07:21:00.173Z,32.16
2019-06-08T07:24:05.958Z,32.13
2019-06-08T07:27:11.714Z,32.01
2019-06-08T07:30:17.673Z,32.38
2019-06-08T07:33:23.374Z,32.47
2019-06-08T07:36:29.148Z,32.32
2019-06-08T07:39:34.842Z,32.35
2019-06-08T07:42:40.600Z,32.43
2019-06-08T07:45:46.262Z,32.47
2019-06-08T07:48:52.360Z,32.25
2019-06-08T07:52:08.263Z,32.80
2019-06-08T07:55:05.623Z,33.20
2019-06-08T07:58:11.291Z,33.16
2019-06-08T08:01:17.632Z,33.69
2019-06-08T08:04:23.311Z,33.89
2019-06-08T08:07:29.001Z,33.97
2019-06-08T08:10:34.652Z,34.16
2019-06-08T08:13:40.446Z,34.08
2019-06-08T08:16:46.133Z,33.68
2019-06-08T08:19:53.082Z,33.75
2019-06-08T08:23:05.611Z,33.72
2019-06-08T08:26:06.438Z,34.01
2019-06-08T08:29:12.128Z,33.88
2019-06-08T08:32:18.791Z,33.98
2019-06-08T08:35:24.710Z,33.80
2019-06-08T08:38:30.384Z,33.68
2019-06-08T08:41:36.176Z,33.97
2019-06-08T08:44:41.971Z,32.94
2019-06-08T08:47:48.482Z,32.89
2019-06-08T08:50:54.386Z,33.25
2019-06-08T08:54:04.754Z,33.55
2019-06-08T08:57:08.485Z,34.05
2019-06-08T09:00:14.548Z,33.26
2019-06-08T09:03:29.109Z,34.04
2019-06-08T09:06:28.100Z,33.95
2019-06-08T09:09:33.757Z,34.49
2019-06-08T09:12:39.494Z,34.74
2019-06-08T09:15:47.853Z,34.96
2019-06-08T09:18:53.762Z,34.99
2019-06-08T09:22:02.264Z,34.42
2019-06-08T09:25:08.788Z,34.39
2019-06-08T09:28:14.528Z,33.46
2019-06-08T09:31:20.245Z,34.07
2019-06-08T09:34:28.113Z,34.54
2019-06-08T09:37:33.312Z,34.38
2019-06-08T09:40:39.006Z,34.90
2019-06-08T09:43:44.785Z,35.06
2019-06-08T09:46:50.473Z,35.38
2019-06-08T09:49:58.807Z,35.56
2019-06-08T09:53:22.361Z,35.44
2019-06-08T09:56:11.031Z,35.40
2019-06-08T09:59:18.717Z,35.33
2019-06-08T10:02:24.119Z,35.75
2019-06-08T10:05:29.819Z,35.77
2019-06-08T10:08:35.506Z,35.74
2019-06-08T10:11:41.265Z,35.98
2019-06-08T10:14:49.020Z,35.84
2019-06-08T10:17:54.861Z,35.40
2019-06-08T10:21:04.964Z,35.83
2019-06-08T10:24:10.581Z,36.09
2019-06-08T10:27:18.765Z,35.93
2019-06-08T10:30:23.726Z,36.20
2019-06-08T10:33:29.387Z,36.03
2019-06-08T10:36:35.223Z,35.45
2019-06-08T10:39:40.937Z,35.64
2019-06-08T10:42:48.291Z,35.45
2019-06-08T10:45:54.095Z,34.74
2019-06-08T10:48:59.858Z,35.50
2019-06-08T10:52:09.846Z,35.46
2019-06-08T10:55:13.585Z,35.81
2019-06-08T10:58:20.718Z,36.16
2019-06-08T11:01:28.280Z,35.91
2019-06-08T11:04:33.800Z,35.90
2019-06-08T11:07:39.500Z,36.12
2019-06-08T11:10:47.440Z,36.06
2019-06-08T11:13:52.615Z,36.29
2019-06-08T11:16:58.497Z,36.11
2019-06-08T11:20:07.410Z,36.74
2019-06-08T11:23:12.664Z,36.30
2019-06-08T11:26:24.294Z,36.81
2019-06-08T11:29:27.628Z,37.00
2019-06-08T11:32:34.495Z,36.94
2019-06-08T11:35:40.198Z,36.93
2019-06-08T11:38:47.794Z,37.05
2019-06-08T11:41:53.688Z,36.95
2019-06-08T11:45:00.301Z,36.45
2019-06-08T11:48:06.532Z,36.28
2019-06-08T11:51:13.170Z,35.95
2019-06-08T11:54:32.884Z,36.24
2019-06-08T11:57:28.312Z,36.18
2019-06-08T12:01:13.795Z,36.19
2019-06-08T12:04:18.393Z,36.63
2019-06-08T12:07:25.400Z,36.61
2019-06-08T12:10:31.082Z,35.83
2019-06-08T12:13:36.900Z,35.68
2019-06-08T12:16:42.615Z,36.13
2019-06-08T12:19:48.261Z,36.30
2019-06-08T12:22:53.949Z,36.04
2019-06-08T12:25:59.647Z,36.42
2019-06-08T12:29:05.322Z,36.30
2019-06-08T12:32:13.592Z,36.25
2019-06-08T12:35:18.543Z,36.05
2019-06-08T12:38:24.232Z,36.35
2019-06-08T12:41:31.516Z,36.61
2019-06-08T12:44:38.223Z,36.72
2019-06-08T12:47:45.132Z,36.64
2019-06-08T12:50:50.837Z,36.90
2019-06-08T12:53:59.986Z,36.82
2019-06-08T12:57:03.914Z,36.56
2019-06-08T13:00:11.554Z,35.91
2019-06-08T13:03:18.682Z,36.13
2019-06-08T13:06:24.553Z,36.26
2019-06-08T13:09:30.280Z,36.59
2019-06-08T13:12:36.062Z,36.74
2019-06-08T13:15:41.721Z,36.76
2019-06-08T13:18:48.147Z,36.81
2019-06-08T13:21:54.153Z,36.95
2019-06-08T13:25:15.183Z,37.36
2019-06-08T13:28:12.257Z,37.34
2019-06-08T13:31:16.271Z,37.14
2019-06-08T13:34:24.092Z,37.23
2019-06-08T13:37:29.359Z,36.86
2019-06-08T13:40:37.696Z,36.96
2019-06-08T13:43:42.406Z,37.25
2019-06-08T13:46:49.241Z,37.41
2019-06-08T13:49:54.909Z,37.28
2019-06-08T13:53:00.838Z,37.25
2019-06-08T13:56:07.839Z,37.13
2019-06-08T13:59:18.071Z,37.01
2019-06-08T14:02:25.122Z,36.98
2019-06-08T14:05:31.933Z,36.87
2019-06-08T14:08:38.619Z,37.12
2019-06-08T14:11:44.423Z,37.32
2019-06-08T14:14:50.117Z,37.02
2019-06-08T14:17:55.749Z,37.13
2019-06-08T14:21:01.437Z,37.17
2019-06-08T14:24:07.758Z,36.88
2019-06-08T14:27:14.643Z,37.18
2019-06-08T14:30:22.150Z,37.14
2019-06-08T14:33:32.102Z,37.01
2019-06-08T14:36:35.394Z,37.17
2019-06-08T14:39:41.175Z,37.07
2019-06-08T14:42:48.451Z,37.20
2019-06-08T14:45:54.412Z,37.20
2019-06-08T14:49:00.081Z,37.25
2019-06-08T14:52:07.946Z,37.28
2019-06-08T14:55:13.511Z,37.23
2019-06-08T14:58:23.980Z,37.29
2019-06-08T15:01:29.787Z,36.88
2019-06-08T15:04:36.676Z,36.74
2019-06-08T15:07:41.425Z,36.57
2019-06-08T15:10:49.592Z,36.71
2019-06-08T15:13:54.541Z,36.77
2019-06-08T15:17:00.243Z,36.92
2019-06-08T15:20:08.637Z,36.85
2019-06-08T15:23:16.855Z,36.52
2019-06-08T15:26:29.035Z,36.37
2019-06-08T15:29:30.686Z,36.50
2019-06-08T15:32:38.576Z,36.46
2019-06-08T15:35:43.936Z,36.51
2019-06-08T15:38:49.621Z,36.41
2019-06-08T15:41:55.323Z,36.31
2019-06-08T15:45:01.115Z,36.34
2019-06-08T15:48:07.980Z,36.28
2019-06-08T15:51:13.869Z,36.44
2019-06-08T15:54:19.547Z,36.23
2019-06-08T15:57:27.538Z,36.18
2019-06-08T16:00:33.258Z,36.03
2019-06-08T16:03:40.117Z,36.08
2019-06-08T16:06:45.950Z,35.94
2019-06-08T16:09:51.607Z,35.84
2019-06-08T16:12:57.289Z,36.04
2019-06-08T16:16:02.974Z,35.84
2019-06-08T16:19:08.700Z,35.82
2019-06-08T16:22:14.376Z,35.45
2019-06-08T16:25:20.207Z,35.27
2019-06-08T16:28:25.916Z,34.83
2019-06-08T16:31:33.145Z,34.77
2019-06-08T16:34:39.687Z,34.46
2019-06-08T16:37:45.669Z,34.32
2019-06-08T16:40:51.449Z,34.32
2019-06-08T16:43:57.144Z,34.19
2019-06-08T16:47:02.807Z,33.94
2019-06-08T16:50:23.255Z,33.63
2019-06-08T16:53:16.710Z,33.52
2019-06-08T16:56:23.418Z,33.41
2019-06-08T16:59:30.163Z,33.20
2019-06-08T17:02:37.177Z,33.12
2019-06-08T17:05:43.106Z,32.94
2019-06-08T17:08:48.797Z,32.90
2019-06-08T17:11:54.618Z,32.92
2019-06-08T17:15:00.313Z,32.80
2019-06-08T17:18:06.056Z,32.63
2019-06-08T17:21:11.767Z,32.58
2019-06-08T17:24:17.401Z,32.43
2019-06-08T17:27:26.975Z,32.37
2019-06-08T17:30:30.758Z,32.23
2019-06-08T17:33:37.257Z,32.04
2019-06-08T17:36:43.002Z,32.10
2019-06-08T17:39:48.686Z,32.13
2019-06-08T17:42:54.380Z,32.11
2019-06-08T17:46:00.044Z,32.14
2019-06-08T17:49:06.078Z,32.08
2019-06-08T17:52:11.833Z,31.96
2019-06-08T17:55:17.770Z,31.92
2019-06-08T17:58:23.459Z,31.89
2019-06-08T18:01:29.339Z,31.82
2019-06-08T18:04:36.119Z,31.79
2019-06-08T18:07:44.317Z,31.79
2019-06-08T18:10:49.980Z,31.69
2019-06-08T18:13:58.264Z,31.65
2019-06-08T18:17:03.299Z,31.56
2019-06-08T18:20:11.830Z,31.49
2019-06-08T18:23:17.601Z,31.48
2019-06-08T18:26:23.333Z,31.24
2019-06-08T18:29:28.987Z,31.22
2019-06-08T18:32:34.862Z,31.09
2019-06-08T18:35:41.869Z,31.17
2019-06-08T18:38:48.603Z,31.16
2019-06-08T18:41:54.435Z,30.73
2019-06-08T18:45:00.116Z,30.94
2019-06-08T18:48:07.122Z,30.88
2019-06-08T18:51:17.439Z,30.78
2019-06-08T18:54:22.746Z,30.72
2019-06-08T18:57:28.477Z,30.71
2019-06-08T19:00:41.986Z,30.61
2019-06-08T19:03:49.815Z,30.55
2019-06-08T19:06:54.717Z,30.63
2019-06-08T19:10:03.451Z,30.46
2019-06-08T19:13:09.221Z,30.36
2019-06-08T19:16:14.938Z,30.37
2019-06-08T19:19:20.627Z,30.14
2019-06-08T19:22:30.030Z,30.41
2019-06-08T19:25:33.763Z,30.41
2019-06-08T19:28:44.965Z,30.43
2019-06-08T19:31:50.019Z,30.54
2019-06-08T19:34:54.956Z,30.52
2019-06-08T19:38:00.770Z,30.39
2019-06-08T19:41:08.132Z,30.17
2019-06-08T19:44:13.908Z,30.34
2019-06-08T19:47:19.587Z,30.20
2019-06-08T19:50:28.040Z,30.22
2019-06-08T19:53:32.796Z,30.23
2019-06-08T19:56:39.039Z,30.17
2019-06-08T19:59:46.021Z,30.18
2019-06-08T20:02:54.995Z,30.06
2019-06-08T20:05:59.099Z,30.02
2019-06-08T20:09:07.935Z,29.98
2019-06-08T20:12:13.113Z,29.98
2019-06-08T20:15:19.316Z,30.00
2019-06-08T20:18:25.015Z,29.96
2019-06-08T20:21:30.765Z,29.91
2019-06-08T20:24:37.768Z,29.95
2019-06-08T20:27:43.743Z,29.96
2019-06-08T20:30:50.602Z,29.94
2019-06-08T20:33:57.714Z,29.93
2019-06-08T20:37:03.464Z,29.94
2019-06-08T20:40:13.836Z,29.89
2019-06-08T20:43:17.685Z,29.81
2019-06-08T20:46:23.620Z,29.89
2019-06-08T20:49:29.350Z,29.87
2019-06-08T20:52:37.599Z,29.84
2019-06-08T20:55:43.121Z,29.88
2019-06-08T20:58:50.952Z,29.76
2019-06-08T21:01:58.625Z,29.77
2019-06-08T21:05:04.017Z,29.78
2019-06-08T21:08:09.725Z,29.69
2019-06-08T21:11:17.634Z,29.61
2019-06-08T21:14:22.886Z,29.61
2019-06-08T21:17:28.617Z,29.57
2019-06-08T21:20:34.287Z,29.44
2019-06-08T21:23:39.996Z,29.35
2019-06-08T21:26:50.693Z,29.31
2019-06-08T21:29:59.929Z,29.25
2019-06-08T21:33:00.999Z,29.23
2019-06-08T21:36:08.727Z,29.04
2019-06-08T21:39:14.247Z,29.01
2019-06-08T21:42:19.915Z,29.00
2019-06-08T21:45:27.474Z,28.89
2019-06-08T21:48:33.102Z,28.86
2019-06-08T21:51:38.813Z,28.68
2019-06-08T21:54:44.532Z,28.68
2019-06-08T21:57:52.696Z,28.70
2019-06-08T22:00:59.707Z,28.67
2019-06-08T22:04:07.653Z,28.48
2019-06-08T22:07:13.830Z,28.45
2019-06-08T22:10:19.617Z,28.39
2019-06-08T22:13:25.309Z,28.30
2019-06-08T22:16:31.078Z,28.34
2019-06-08T22:19:38.038Z,28.21
2019-06-08T22:22:43.881Z,28.01
2019-06-08T22:25:49.540Z,28.19
2019-06-08T22:28:55.466Z,28.01
2019-06-08T22:32:01.153Z,27.98
2019-06-08T22:35:07.988Z,27.98
2019-06-08T22:38:13.981Z,27.83
2019-06-08T22:41:19.650Z,27.86
2019-06-08T22:44:25.348Z,27.84
2019-06-08T22:47:31.035Z,27.80
2019-06-08T22:50:38.189Z,27.72
2019-06-08T22:53:44.177Z,27.75
2019-06-08T22:56:49.831Z,27.72
2019-06-08T22:59:58.112Z,27.82
2019-06-08T23:03:04.337Z,27.81
2019-06-08T23:06:10.286Z,27.82
2019-06-08T23:09:17.992Z,27.69
2019-06-08T23:12:23.374Z,27.77
2019-06-08T23:15:29.077Z,27.75
2019-06-08T23:18:37.166Z,27.73
2019-06-08T23:21:42.170Z,27.59
2019-06-08T23:24:47.834Z,27.73
2019-06-08T23:27:53.546Z,27.67
2019-06-08T23:31:11.838Z,27.40
2019-06-08T23:34:11.304Z,27.38
2019-06-08T23:37:14.950Z,27.23
2019-06-08T23:40:20.856Z,27.30
2019-06-08T23:43:28.111Z,27.33
2019-06-08T23:46:33.888Z,27.20
2019-06-08T23:49:39.552Z,27.26
2019-06-08T23:52:47.554Z,27.18
2019-06-08T23:55:52.657Z,27.10
2019-06-08T23:58:58.877Z,27.16
